Perch River, New York
Current Conditions -  °F | °C
As of 8:44 AM on Friday 19 Dec 2014 (Local Time) from KART Reporting Station
Overcast Overcast  
Wind Chill: 17°   Ceiling: 1700
Heat Index: 25°   Visibility: 10mi
Dew Point: 18°   Wind: 7mph
Humidity: 75%   Direction: 330°NNW
Pressure: 30.13"   Gusts: NA
Location:  44.0116°N, 76.0789°W
Report Text: KART 191344Z AUTO 33006KT 10SM SCT010 OVC017 M04/M08 A3013 RMK AO2 SNE28 P0000 T10391078
Loading
Personal Weather Stations






























Interactive Weather Map New forecast layout! Learn more

10-Day Weather Forecast

Advertisements
Track Severe Weather on mobile